Aviation Digital Data Service (ADDS)

Output produced by METARs form (2132 UTC 28 March 2017)
found at http://aviationweather.gov/adds/metars/
 
KPGV 281739Z 2818/2918 23011KT P6SM VCSH SCT070 
     TEMPO 2821/2823 4SM TS BKN020CB 
     FM282300 26007KT P6SM VCSH FEW020 SCT100 
     FM290300 28005KT P6SM FEW050 
     FM291200 01007KT P6SM BKN010 
     FM291600 02009KT P6SM BKN250 AMD LTD TO CLD VIS AND WIND